createdAt,value
2023-02-01T00:00:27.764Z,90.61
2023-02-01T00:02:54.188Z,90.68
2023-02-01T00:05:20.706Z,91.20
2023-02-01T00:07:50.171Z,91.12
2023-02-01T00:10:17.243Z,91.30
2023-02-01T00:12:43.740Z,91.45
2023-02-01T00:15:10.487Z,91.55
2023-02-01T00:17:37.011Z,91.55
2023-02-01T00:20:04.070Z,91.92
2023-02-01T00:22:30.876Z,91.90
2023-02-01T00:24:57.340Z,92.34
2023-02-01T00:27:23.787Z,92.51
2023-02-01T00:29:50.207Z,92.50
2023-02-01T00:32:16.838Z,92.68
2023-02-01T00:34:43.295Z,92.77
2023-02-01T00:37:09.740Z,93.10
2023-02-01T00:39:36.269Z,92.84
2023-02-01T00:42:03.160Z,93.04
2023-02-01T00:44:33.928Z,93.03
2023-02-01T00:47:01.036Z,93.15
2023-02-01T00:49:27.789Z,93.10
2023-02-01T00:51:54.452Z,92.84
2023-02-01T00:54:20.945Z,92.89
2023-02-01T00:56:47.425Z,92.82
2023-02-01T00:59:14.228Z,92.74
2023-02-01T01:01:40.736Z,92.68
2023-02-01T01:04:07.320Z,92.48
2023-02-01T01:06:34.491Z,92.36
2023-02-01T01:09:03.878Z,92.51
2023-02-01T01:11:31.151Z,92.37
2023-02-01T01:13:59.143Z,92.06
2023-02-01T01:16:27.692Z,91.82
2023-02-01T01:18:55.710Z,91.67
2023-02-01T01:21:22.500Z,91.54
2023-02-01T01:23:49.188Z,91.30
2023-02-01T01:26:21.245Z,91.38
2023-02-01T01:28:47.745Z,91.28
2023-02-01T01:31:16.768Z,91.13
2023-02-01T01:33:44.891Z,90.93
2023-02-01T01:36:12.595Z,91.22
2023-02-01T01:38:40.378Z,91.32
2023-02-01T01:41:07.573Z,91.45
2023-02-01T01:43:58.893Z,91.66
2023-02-01T01:46:32.485Z,91.85
2023-02-01T01:49:23.524Z,91.99
2023-02-01T01:52:02.432Z,92.26
2023-02-01T01:54:58.869Z,92.45
2023-02-01T01:57:29.318Z,92.35
2023-02-01T02:00:01.784Z,92.79
2023-02-01T02:02:28.373Z,92.96
2023-02-01T02:04:54.887Z,93.09
2023-02-01T02:07:25.592Z,93.11
2023-02-01T02:10:00.486Z,93.24
2023-02-01T02:12:27.846Z,93.30
2023-02-01T02:14:54.581Z,93.25
2023-02-01T02:17:37.180Z,93.48
2023-02-01T02:20:35.400Z,93.51
2023-02-01T02:23:20.901Z,93.34
2023-02-01T02:26:07.226Z,93.32
2023-02-01T02:29:11.695Z,93.20
2023-02-01T02:32:04.356Z,93.17
2023-02-01T02:34:48.238Z,93.21
2023-02-01T02:37:40.222Z,93.17
2023-02-01T02:40:22.928Z,93.05
2023-02-01T02:43:17.856Z,92.95
2023-02-01T02:46:34.593Z,92.98
2023-02-01T02:49:13.927Z,92.80
2023-02-01T02:52:06.356Z,92.77
2023-02-01T02:54:47.824Z,92.55
2023-02-01T02:57:47.904Z,92.71
2023-02-01T03:00:37.450Z,92.63
2023-02-01T03:03:22.904Z,92.90
2023-02-01T03:05:51.472Z,93.04
2023-02-01T03:08:20.632Z,93.11
2023-02-01T03:10:55.297Z,93.36
2023-02-01T03:13:51.610Z,93.42
2023-02-01T03:16:29.548Z,93.57
2023-02-01T03:19:00.693Z,93.92
2023-02-01T03:21:38.304Z,94.05
2023-02-01T03:24:09.408Z,94.12
2023-02-01T03:26:39.530Z,94.41
2023-02-01T03:29:25.783Z,94.66
2023-02-01T03:31:52.907Z,94.82
2023-02-01T03:34:19.547Z,95.02
2023-02-01T03:36:50.184Z,95.02
2023-02-01T03:39:26.257Z,95.37
2023-02-01T03:42:03.062Z,95.63
2023-02-01T03:44:36.433Z,95.67
2023-02-01T03:47:09.505Z,96.02
2023-02-01T03:49:41.004Z,96.20
2023-02-01T03:52:10.538Z,96.32
2023-02-01T03:54:37.457Z,96.50
2023-02-01T03:57:08.018Z,96.50
2023-02-01T03:59:35.178Z,96.81
2023-02-01T04:02:01.811Z,97.04
2023-02-01T04:04:28.516Z,97.10
2023-02-01T04:06:56.187Z,97.23
2023-02-01T04:09:22.616Z,97.34
2023-02-01T04:11:49.109Z,97.45
2023-02-01T04:14:15.534Z,97.42
2023-02-01T04:16:42.282Z,97.38
2023-02-01T04:19:08.881Z,97.37
2023-02-01T04:21:35.307Z,97.51
2023-02-01T04:24:01.697Z,97.57
2023-02-01T04:26:28.113Z,97.58
2023-02-01T04:28:54.615Z,97.52
2023-02-01T04:31:26.510Z,97.42
2023-02-01T04:33:53.955Z,97.41
2023-02-01T04:36:24.102Z,97.34
2023-02-01T04:38:51.823Z,97.13
2023-02-01T04:41:19.784Z,97.02
2023-02-01T04:43:47.657Z,96.70
2023-02-01T04:46:14.179Z,96.96
2023-02-01T04:48:40.710Z,96.68
2023-02-01T04:51:07.619Z,96.61
2023-02-01T04:53:34.351Z,96.53
2023-02-01T04:56:00.835Z,96.33
2023-02-01T04:58:27.350Z,96.35
2023-02-01T05:00:53.879Z,96.25
2023-02-01T05:03:20.386Z,96.31
2023-02-01T05:05:49.050Z,96.05
2023-02-01T05:08:15.993Z,96.10
2023-02-01T05:10:42.566Z,96.08
2023-02-01T05:13:29.052Z,96.24
2023-02-01T05:15:55.488Z,96.20
2023-02-01T05:18:22.010Z,96.05
2023-02-01T05:20:48.400Z,95.99
2023-02-01T05:23:14.848Z,96.14
2023-02-01T05:25:41.305Z,95.96
2023-02-01T05:28:07.772Z,95.84
2023-02-01T05:30:36.085Z,95.70
2023-02-01T05:33:03.610Z,95.44
2023-02-01T05:35:30.381Z,95.33
2023-02-01T05:37:56.912Z,95.00
2023-02-01T05:40:23.705Z,94.92
2023-02-01T05:42:50.401Z,94.74
2023-02-01T05:45:17.017Z,94.36
2023-02-01T05:47:43.430Z,94.29
2023-02-01T05:50:10.038Z,93.91
2023-02-01T05:52:36.468Z,93.65
2023-02-01T05:55:03.056Z,93.64
2023-02-01T05:57:29.696Z,93.55
2023-02-01T05:59:56.209Z,93.56
2023-02-01T06:02:24.968Z,93.72
2023-02-01T06:04:51.815Z,93.61
2023-02-01T06:07:18.330Z,93.43
2023-02-01T06:09:44.812Z,93.56
2023-02-01T06:12:11.298Z,93.20
2023-02-01T06:14:37.995Z,93.36
2023-02-01T06:17:04.438Z,93.30
2023-02-01T06:19:31.212Z,93.17
2023-02-01T06:21:57.621Z,93.10
2023-02-01T06:24:24.069Z,93.03
2023-02-01T06:26:50.547Z,92.83
2023-02-01T06:29:16.983Z,92.32
2023-02-01T06:31:43.760Z,92.41
2023-02-01T06:34:10.213Z,92.10
2023-02-01T06:36:36.820Z,91.65
2023-02-01T06:39:03.531Z,91.73
2023-02-01T06:41:29.981Z,92.03
2023-02-01T06:43:56.638Z,92.29
2023-02-01T06:46:23.165Z,92.29
2023-02-01T06:48:51.236Z,92.46
2023-02-01T06:51:28.857Z,93.26
2023-02-01T06:53:55.276Z,93.45
2023-02-01T06:56:21.833Z,93.63
2023-02-01T06:58:48.664Z,94.00
2023-02-01T07:01:15.564Z,94.30
2023-02-01T07:03:42.505Z,94.70
2023-02-01T07:06:09.923Z,94.91
2023-02-01T07:08:38.107Z,94.92
2023-02-01T07:11:06.189Z,95.01
2023-02-01T07:13:32.698Z,95.19
2023-02-01T07:16:00.848Z,95.26
2023-02-01T07:18:28.855Z,95.44
2023-02-01T07:20:56.093Z,95.65
2023-02-01T07:23:22.728Z,95.72
2023-02-01T07:25:49.205Z,95.91
2023-02-01T07:28:15.778Z,96.12
2023-02-01T07:30:42.594Z,96.27
2023-02-01T07:33:09.224Z,96.30
2023-02-01T07:35:35.681Z,96.38
2023-02-01T07:38:02.148Z,96.37
2023-02-01T07:40:29.598Z,96.20
2023-02-01T07:42:56.561Z,96.11
2023-02-01T07:45:23.507Z,95.96
2023-02-01T07:47:50.059Z,95.60
2023-02-01T07:50:16.758Z,95.35
2023-02-01T07:52:43.187Z,94.87
2023-02-01T07:55:10.003Z,94.59
2023-02-01T07:57:36.425Z,94.26
2023-02-01T08:00:23.324Z,93.76
2023-02-01T08:02:50.347Z,93.44
2023-02-01T08:05:16.795Z,92.58
2023-02-01T08:07:43.350Z,92.11
2023-02-01T08:10:12.084Z,91.39
2023-02-01T08:12:39.227Z,91.18
2023-02-01T08:15:06.187Z,90.44
2023-02-01T08:17:32.655Z,90.00
2023-02-01T08:19:59.131Z,89.13
2023-02-01T08:22:25.561Z,88.59
2023-02-01T08:24:52.555Z,88.34
2023-02-01T08:27:19.096Z,87.67
2023-02-01T08:29:45.493Z,87.08
2023-02-01T08:32:11.988Z,86.86
2023-02-01T08:34:38.437Z,86.59
2023-02-01T08:37:04.851Z,86.47
2023-02-01T08:39:31.718Z,86.28
2023-02-01T08:42:16.835Z,86.25
2023-02-01T08:44:43.228Z,85.74
2023-02-01T08:47:09.672Z,85.53
2023-02-01T08:49:36.144Z,85.23
2023-02-01T08:52:07.214Z,85.17
2023-02-01T08:54:37.144Z,85.06
2023-02-01T08:57:04.963Z,85.26
2023-02-01T08:59:31.444Z,85.04
2023-02-01T09:01:58.037Z,85.03
2023-02-01T09:04:24.521Z,85.31
2023-02-01T09:06:50.977Z,85.38
2023-02-01T09:09:17.397Z,85.42
2023-02-01T09:11:43.818Z,85.65
2023-02-01T09:14:10.537Z,85.55
2023-02-01T09:16:36.991Z,85.79
2023-02-01T09:19:24.301Z,85.84
2023-02-01T09:21:50.070Z,85.68
2023-02-01T09:24:16.657Z,85.91
2023-02-01T09:26:43.259Z,85.83
2023-02-01T09:29:12.668Z,86.08
2023-02-01T09:31:41.860Z,86.09
2023-02-01T09:34:10.496Z,85.98
2023-02-01T09:36:36.938Z,85.91
2023-02-01T09:39:03.501Z,85.66
2023-02-01T09:41:39.184Z,85.64
2023-02-01T09:44:17.599Z,85.51
2023-02-01T09:46:44.122Z,85.31
2023-02-01T09:49:18.518Z,84.81
2023-02-01T09:51:47.057Z,84.67
2023-02-01T09:54:17.375Z,84.58
2023-02-01T09:57:01.495Z,84.81
2023-02-01T09:59:27.818Z,85.17
2023-02-01T10:01:54.363Z,85.06
2023-02-01T10:04:20.977Z,85.53
2023-02-01T10:07:00.741Z,85.67
2023-02-01T10:09:50.397Z,85.37
2023-02-01T10:12:39.285Z,84.39
2023-02-01T10:15:40.920Z,84.27
2023-02-01T10:18:19.902Z,84.16
2023-02-01T10:21:42.432Z,83.95
2023-02-01T10:24:30.411Z,83.74
2023-02-01T10:27:13.631Z,83.82
2023-02-01T10:29:46.763Z,83.67
2023-02-01T10:32:24.389Z,83.74
2023-02-01T10:34:57.391Z,83.71
2023-02-01T10:37:27.814Z,83.28
2023-02-01T10:39:56.502Z,82.81
2023-02-01T10:42:27.206Z,82.26
2023-02-01T10:44:55.296Z,81.95
2023-02-01T10:47:21.851Z,81.11
2023-02-01T10:50:07.672Z,80.87
2023-02-01T10:52:40.567Z,79.54
2023-02-01T10:55:46.114Z,78.74
2023-02-01T10:58:20.085Z,78.69
2023-02-01T11:00:55.623Z,78.17
2023-02-01T11:03:38.218Z,77.74
2023-02-01T11:06:12.360Z,77.73
2023-02-01T11:08:53.960Z,77.29
2023-02-01T11:11:21.244Z,76.97
2023-02-01T11:13:58.859Z,76.29
2023-02-01T11:16:35.956Z,75.92
2023-02-01T11:19:02.453Z,76.35
2023-02-01T11:21:28.977Z,75.89
2023-02-01T11:23:55.891Z,76.14
2023-02-01T11:26:26.282Z,76.10
2023-02-01T11:29:09.573Z,75.75
2023-02-01T11:31:36.087Z,75.75
2023-02-01T11:34:13.577Z,75.78
2023-02-01T11:36:40.541Z,75.71
2023-02-01T11:39:11.722Z,75.43
2023-02-01T11:41:42.501Z,75.40
2023-02-01T11:44:34.992Z,75.13
2023-02-01T11:47:20.828Z,75.01
2023-02-01T11:49:48.788Z,74.93
2023-02-01T11:52:27.183Z,74.93
2023-02-01T11:55:11.199Z,74.97
2023-02-01T11:58:14.630Z,74.78
2023-02-01T12:00:44.710Z,74.84
2023-02-01T12:03:30.840Z,75.13
2023-02-01T12:06:25.308Z,74.65
2023-02-01T12:08:59.512Z,74.21
2023-02-01T12:11:43.368Z,74.64
2023-02-01T12:14:19.738Z,74.47
2023-02-01T12:17:07.470Z,74.45
2023-02-01T12:20:16.829Z,74.19
2023-02-01T12:23:05.165Z,74.23
2023-02-01T12:25:56.605Z,73.70
2023-02-01T12:28:42.003Z,74.25
2023-02-01T12:31:30.539Z,74.22
2023-02-01T12:34:23.686Z,74.10
2023-02-01T12:37:00.269Z,73.79
2023-02-01T12:39:32.502Z,73.91
2023-02-01T12:42:14.560Z,73.79
2023-02-01T12:44:49.612Z,73.61
2023-02-01T12:47:37.904Z,73.11
2023-02-01T12:50:17.289Z,73.38
2023-02-01T12:52:47.608Z,73.27
2023-02-01T12:55:34.390Z,73.54
2023-02-01T12:58:21.512Z,73.10
2023-02-01T13:01:01.748Z,73.31
2023-02-01T13:03:55.013Z,73.22
2023-02-01T13:06:29.556Z,73.38
2023-02-01T13:09:17.579Z,73.20
2023-02-01T13:11:46.414Z,73.11
2023-02-01T13:14:24.867Z,73.21
2023-02-01T13:16:54.194Z,73.49
2023-02-01T13:19:25.732Z,73.61
2023-02-01T13:22:08.491Z,73.58
2023-02-01T13:24:40.300Z,73.57
2023-02-01T13:27:06.879Z,73.48
2023-02-01T13:29:34.475Z,73.83
2023-02-01T13:33:51.051Z,73.63
2023-02-01T13:35:35.906Z,73.54
2023-02-01T13:38:38.297Z,73.61
2023-02-01T13:41:18.415Z,73.79
2023-02-01T13:43:49.523Z,73.79
2023-02-01T13:46:17.105Z,73.93
2023-02-01T13:48:48.773Z,73.94
2023-02-01T13:51:15.848Z,73.89
2023-02-01T13:53:47.702Z,73.80
2023-02-01T13:56:21.096Z,73.75
2023-02-01T13:58:48.776Z,73.65
2023-02-01T14:01:24.349Z,73.74
2023-02-01T14:03:53.545Z,73.75
2023-02-01T14:06:29.070Z,74.03
2023-02-01T14:09:13.229Z,73.97
2023-02-01T14:11:52.376Z,74.15
2023-02-01T14:14:18.658Z,74.21
2023-02-01T14:16:54.254Z,74.21
2023-02-01T14:19:25.384Z,74.42
2023-02-01T14:21:57.861Z,74.35
2023-02-01T14:24:32.509Z,74.17
2023-02-01T14:27:01.255Z,74.69
2023-02-01T14:29:35.113Z,74.38
2023-02-01T14:32:08.337Z,74.59
2023-02-01T14:34:44.478Z,74.62
2023-02-01T14:37:25.146Z,74.63
2023-02-01T14:40:05.073Z,74.52
2023-02-01T14:42:43.790Z,74.46
2023-02-01T14:45:27.775Z,74.37
2023-02-01T14:47:56.047Z,74.33
2023-02-01T14:50:34.587Z,74.49
2023-02-01T14:53:13.372Z,74.47
2023-02-01T14:55:45.478Z,74.05
2023-02-01T14:58:37.469Z,73.67
2023-02-01T15:01:18.640Z,73.68
2023-02-01T15:04:00.871Z,73.65
2023-02-01T15:06:43.496Z,73.45
2023-02-01T15:09:18.162Z,73.03
2023-02-01T15:12:05.263Z,73.09
2023-02-01T15:14:38.005Z,73.01
2023-02-01T15:17:19.593Z,72.93
2023-02-01T15:20:00.925Z,72.86
2023-02-01T15:22:29.142Z,72.61
2023-02-01T15:24:57.639Z,72.54
2023-02-01T15:27:24.673Z,72.36
2023-02-01T15:29:51.511Z,72.21
2023-02-01T15:32:37.099Z,72.26
2023-02-01T15:35:04.001Z,72.07
2023-02-01T15:37:32.013Z,72.23
2023-02-01T15:40:10.614Z,72.10
2023-02-01T15:42:39.441Z,72.12
2023-02-01T15:45:17.852Z,71.90
2023-02-01T15:47:48.436Z,71.61
2023-02-01T15:50:23.301Z,71.47
2023-02-01T15:52:52.654Z,71.63
2023-02-01T15:55:26.802Z,71.35
2023-02-01T15:57:53.461Z,71.35
2023-02-01T16:00:21.519Z,71.44
2023-02-01T16:02:58.836Z,71.88
2023-02-01T16:05:34.356Z,71.68
2023-02-01T16:08:08.937Z,71.48
2023-02-01T16:10:41.206Z,72.07
2023-02-01T16:13:08.015Z,71.78
2023-02-01T16:15:34.474Z,72.04
2023-02-01T16:18:00.946Z,72.15
2023-02-01T16:20:27.343Z,72.34
2023-02-01T16:22:53.760Z,72.66
2023-02-01T16:25:20.309Z,72.67
2023-02-01T16:27:46.769Z,72.70
2023-02-01T16:30:13.414Z,72.72
2023-02-01T16:32:39.813Z,72.65
2023-02-01T16:35:28.345Z,72.68
2023-02-01T16:37:55.576Z,72.66
2023-02-01T16:40:26.611Z,72.80
2023-02-01T16:52:19.389Z,73.10
2023-02-01T17:04:12.168Z,73.52
2023-02-01T17:06:39.223Z,73.61
2023-02-01T17:09:07.076Z,73.56
2023-02-01T17:11:33.883Z,73.30
2023-02-01T17:14:14.641Z,73.78
2023-02-01T17:16:41.375Z,73.90
2023-02-01T17:19:14.860Z,73.94
2023-02-01T17:21:44.646Z,73.89
2023-02-01T17:24:15.067Z,74.05
2023-02-01T17:26:42.450Z,74.12
2023-02-01T17:29:09.045Z,74.49
2023-02-01T17:31:53.558Z,74.41
2023-02-01T17:34:20.392Z,74.43
2023-02-01T17:36:48.041Z,74.32
2023-02-01T17:39:35.533Z,74.50
2023-02-01T17:42:02.971Z,74.60
2023-02-01T17:44:29.818Z,74.76
2023-02-01T17:46:57.529Z,74.76
2023-02-01T17:49:24.187Z,74.76
2023-02-01T17:51:50.960Z,74.78
2023-02-01T17:54:20.195Z,74.67
2023-02-01T17:56:48.526Z,74.79
2023-02-01T17:59:15.818Z,74.89
2023-02-01T18:01:42.727Z,74.83
2023-02-01T18:04:13.085Z,74.84
2023-02-01T18:06:45.161Z,74.91
2023-02-01T18:09:11.850Z,74.66
2023-02-01T18:11:38.350Z,74.54
2023-02-01T18:14:04.865Z,74.85
2023-02-01T18:16:33.852Z,74.60
2023-02-01T18:19:02.336Z,74.50
2023-02-01T18:21:42.176Z,74.55
2023-02-01T18:24:15.983Z,74.11
2023-02-01T18:26:43.025Z,74.29
2023-02-01T18:29:09.561Z,74.26
2023-02-01T18:31:41.302Z,74.16
2023-02-01T18:34:09.883Z,74.12
2023-02-01T18:36:37.437Z,74.15
2023-02-01T18:39:04.139Z,74.00
2023-02-01T18:41:30.643Z,73.98
2023-02-01T18:43:57.115Z,74.05
2023-02-01T18:46:23.858Z,73.84
2023-02-01T18:48:50.337Z,73.98
2023-02-01T18:51:19.934Z,74.02
2023-02-01T18:53:47.518Z,74.11
2023-02-01T18:56:15.100Z,73.98
2023-02-01T18:58:41.693Z,73.89
2023-02-01T19:01:14.467Z,73.97
2023-02-01T19:03:46.491Z,74.05
2023-02-01T19:06:20.117Z,73.98
2023-02-01T19:08:47.112Z,74.05
2023-02-01T19:11:13.656Z,74.01
2023-02-01T19:13:40.719Z,73.99
2023-02-01T19:16:12.697Z,74.03
2023-02-01T19:18:39.357Z,73.63
2023-02-01T19:21:08.664Z,73.93
2023-02-01T19:23:35.044Z,74.17
2023-02-01T19:26:05.315Z,74.21
2023-02-01T19:28:31.809Z,74.41
2023-02-01T19:31:02.906Z,74.58
2023-02-01T19:33:29.582Z,74.58
2023-02-01T19:36:00.824Z,74.69
2023-02-01T19:38:27.328Z,74.58
2023-02-01T19:40:55.681Z,74.99
2023-02-01T19:43:22.779Z,75.01
2023-02-01T19:45:49.255Z,74.96
2023-02-01T19:48:17.802Z,75.18
2023-02-01T19:50:45.545Z,74.83
2023-02-01T19:53:12.643Z,74.97
2023-02-01T19:55:39.155Z,75.13
2023-02-01T19:58:05.842Z,75.04
2023-02-01T20:00:32.140Z,75.12
2023-02-01T20:02:58.724Z,74.96
2023-02-01T20:05:25.496Z,75.18
2023-02-01T20:07:52.136Z,74.97
2023-02-01T20:10:18.626Z,74.96
2023-02-01T20:12:48.352Z,75.26
2023-02-01T20:15:14.821Z,75.20
2023-02-01T20:17:41.261Z,75.13
2023-02-01T20:20:08.333Z,75.03
2023-02-01T20:22:34.879Z,75.16
2023-02-01T20:25:02.661Z,75.25
2023-02-01T20:27:30.262Z,74.96
2023-02-01T20:29:56.756Z,75.17
2023-02-01T20:32:23.996Z,75.10
2023-02-01T20:34:53.202Z,75.42
2023-02-01T20:37:20.496Z,75.09
2023-02-01T20:39:46.973Z,74.98
2023-02-01T20:42:13.412Z,75.18
2023-02-01T20:44:39.869Z,74.89
2023-02-01T20:47:06.368Z,74.83
2023-02-01T20:49:34.464Z,74.80
2023-02-01T20:52:00.988Z,74.82
2023-02-01T20:54:27.827Z,75.01
2023-02-01T20:56:54.256Z,75.02
2023-02-01T20:59:20.739Z,74.59
2023-02-01T21:01:53.400Z,74.56
2023-02-01T21:04:23.673Z,74.82
2023-02-01T21:06:50.214Z,74.89
2023-02-01T21:09:17.124Z,74.93
2023-02-01T21:11:44.180Z,74.71
2023-02-01T21:14:11.020Z,75.00
2023-02-01T21:16:37.990Z,75.06
2023-02-01T21:19:04.845Z,74.94
2023-02-01T21:21:31.333Z,75.08
2023-02-01T21:23:58.389Z,75.25
2023-02-01T21:26:25.775Z,75.20
2023-02-01T21:28:53.822Z,75.18
2023-02-01T21:31:22.181Z,74.98
2023-02-01T21:33:49.411Z,75.18
2023-02-01T21:36:19.795Z,74.97
2023-02-01T21:38:49.917Z,75.20
2023-02-01T21:41:36.762Z,75.15
2023-02-01T21:44:03.674Z,75.16
2023-02-01T21:46:30.133Z,75.11
2023-02-01T21:49:05.364Z,75.18
2023-02-01T21:51:34.949Z,75.12
2023-02-01T21:54:01.438Z,75.04
2023-02-01T21:56:27.909Z,74.98
2023-02-01T21:58:54.968Z,75.21
2023-02-01T22:01:21.413Z,75.19
2023-02-01T22:03:49.145Z,75.52
2023-02-01T22:06:25.467Z,75.33
2023-02-01T22:08:52.042Z,75.51
2023-02-01T22:11:18.835Z,75.65
2023-02-01T22:13:45.385Z,75.75
2023-02-01T22:16:13.342Z,75.98
2023-02-01T22:18:39.838Z,75.85
2023-02-01T22:21:06.315Z,76.02
2023-02-01T22:23:32.778Z,76.10
2023-02-01T22:26:00.241Z,76.00
2023-02-01T22:28:32.784Z,76.20
2023-02-01T22:31:05.592Z,76.28
2023-02-01T22:33:33.573Z,76.39
2023-02-01T22:36:01.009Z,76.32
2023-02-01T22:38:30.429Z,76.45
2023-02-01T22:41:01.975Z,76.44
2023-02-01T22:43:28.808Z,76.36
2023-02-01T22:46:00.856Z,76.42
2023-02-01T22:48:28.516Z,76.43
2023-02-01T22:50:59.053Z,76.38
2023-02-01T22:53:26.217Z,76.61
2023-02-01T22:55:53.093Z,76.60
2023-02-01T22:58:19.952Z,76.70
2023-02-01T23:00:46.384Z,76.56
2023-02-01T23:03:12.962Z,76.54
2023-02-01T23:05:39.717Z,76.81
2023-02-01T23:08:06.199Z,76.86
2023-02-01T23:10:32.894Z,76.82
2023-02-01T23:12:59.305Z,76.72
2023-02-01T23:15:25.946Z,76.86
2023-02-01T23:17:52.551Z,77.54
2023-02-01T23:20:19.826Z,77.78
2023-02-01T23:22:47.614Z,78.13
2023-02-01T23:25:16.188Z,78.52
2023-02-01T23:27:43.442Z,78.37
2023-02-01T23:30:10.878Z,78.47
2023-02-01T23:32:37.716Z,78.86
2023-02-01T23:35:05.235Z,78.83
2023-02-01T23:37:31.717Z,79.03
2023-02-01T23:39:58.203Z,78.93
2023-02-01T23:42:24.742Z,79.33
2023-02-01T23:44:51.191Z,79.24
2023-02-01T23:47:17.641Z,79.22
2023-02-01T23:49:45.441Z,80.17
2023-02-01T23:52:12.081Z,80.39
2023-02-01T23:54:38.561Z,80.80
2023-02-01T23:57:05.078Z,81.06
2023-02-01T23:59:31.503Z,81.29
